< < Back
Terminal Aerodrome Forecast


Current Version              Previous Versions:   1  2  3  4  5  6  7  8  9  

Terminal Aerodrome Forecast

687
FTAK31 PAJN 071700
TAFAHN
TAF
PAHN 071723Z 0718/0818 12007KT P6SM BKN120
     FM072200 12010G18KT P6SM SCT050 BKN100
     FM080400 12008KT P6SM SCT025 BKN050
     FM081000 12006KT P6SM VCSH BKN025 OVC040
     FM081500 09008KT P6SM VCSH BKN035 OVC050
      AMD LTD TO CLD VIS AND WIND=



Latest METAR

705
SAUS70 KWBC 072200
MTRAHN
METAR KAHN 072151Z 25004KT 10SM FEW070 32/21 A3012 RMK AO2 SLP191
T03170206


USA.gov is the U.S. government's official web portal to all federal, state and local government web resources and services.